createdAt,value
2022-11-13T00:02:15.817Z,10.06
2022-11-13T00:05:01.149Z,9.94
2022-11-13T00:07:46.810Z,9.92
2022-11-13T00:10:32.259Z,10.08
2022-11-13T00:13:17.370Z,9.91
2022-11-13T00:16:05.667Z,9.99
2022-11-13T00:18:50.776Z,9.92
2022-11-13T00:21:35.977Z,9.96
2022-11-13T00:24:20.954Z,10.35
2022-11-13T00:27:06.477Z,10.45
2022-11-13T00:29:51.800Z,10.46
2022-11-13T00:32:37.955Z,10.37
2022-11-13T00:35:23.051Z,9.18
2022-11-13T00:38:08.121Z,9.39
2022-11-13T00:40:53.341Z,8.98
2022-11-13T00:43:38.661Z,9.67
2022-11-13T00:46:23.995Z,9.84
2022-11-13T00:49:09.898Z,9.95
2022-11-13T00:51:55.278Z,9.62
2022-11-13T00:54:40.466Z,9.95
2022-11-13T00:57:25.971Z,9.75
2022-11-13T01:00:12.128Z,10.21
2022-11-13T01:03:00.518Z,10.60
2022-11-13T01:05:46.803Z,10.50
2022-11-13T01:08:31.902Z,10.49
2022-11-13T01:11:19.974Z,10.65
2022-11-13T01:14:05.007Z,10.66
2022-11-13T01:16:50.122Z,10.21
2022-11-13T01:19:35.341Z,10.55
2022-11-13T01:22:20.502Z,10.54
2022-11-13T01:25:06.487Z,10.52
2022-11-13T01:27:51.761Z,10.43
2022-11-13T01:30:39.198Z,10.61
2022-11-13T01:33:24.210Z,10.76
2022-11-13T01:36:13.840Z,10.89
2022-11-13T01:38:59.437Z,10.73
2022-11-13T01:41:44.664Z,10.34
2022-11-13T01:44:56.291Z,10.28
2022-11-13T01:47:41.528Z,10.23
2022-11-13T01:50:26.671Z,10.48
2022-11-13T01:53:12.789Z,10.69
2022-11-13T01:55:58.004Z,10.57
2022-11-13T01:58:51.453Z,10.74
2022-11-13T02:01:36.878Z,10.50
2022-11-13T02:04:23.188Z,10.92
2022-11-13T02:07:11.558Z,10.95
2022-11-13T02:09:58.541Z,11.16
2022-11-13T02:12:49.514Z,11.23
2022-11-13T02:15:35.776Z,10.89
2022-11-13T02:18:24.158Z,10.83
2022-11-13T02:21:09.497Z,11.17
2022-11-13T02:24:09.009Z,11.05
2022-11-13T02:26:58.522Z,11.05
2022-11-13T02:29:44.009Z,11.42
2022-11-13T02:32:29.890Z,11.18
2022-11-13T02:35:18.032Z,11.12
2022-11-13T02:38:06.078Z,11.20
2022-11-13T02:40:51.004Z,11.09
2022-11-13T02:43:36.233Z,11.51
2022-11-13T02:46:21.684Z,11.09
2022-11-13T02:49:07.704Z,11.35
2022-11-13T02:51:53.087Z,11.16
2022-11-13T02:54:38.132Z,10.99
2022-11-13T02:57:23.770Z,11.50
2022-11-13T03:00:13.850Z,11.56
2022-11-13T03:02:59.873Z,10.69
2022-11-13T03:05:49.898Z,10.25
2022-11-13T03:08:36.194Z,11.06
2022-11-13T03:11:22.273Z,10.90
2022-11-13T03:14:07.346Z,11.24
2022-11-13T03:16:52.388Z,11.36
2022-11-13T03:19:37.885Z,11.06
2022-11-13T03:22:23.369Z,11.06
2022-11-13T03:25:10.789Z,11.19
2022-11-13T03:27:56.903Z,10.97
2022-11-13T03:30:42.391Z,11.00
2022-11-13T03:33:27.912Z,11.03
2022-11-13T03:36:13.103Z,11.13
2022-11-13T03:38:59.359Z,10.95
2022-11-13T03:41:44.560Z,10.98
2022-11-13T03:44:30.026Z,11.17
2022-11-13T03:47:15.664Z,11.05
2022-11-13T03:50:00.868Z,11.23
2022-11-13T03:52:46.575Z,11.37
2022-11-13T03:55:32.041Z,11.23
2022-11-13T03:58:17.578Z,11.25
2022-11-13T04:01:02.752Z,11.18
2022-11-13T04:03:48.101Z,11.21
2022-11-13T04:06:33.479Z,11.75
2022-11-13T04:09:18.874Z,11.32
2022-11-13T04:12:04.408Z,11.85
2022-11-13T04:14:49.862Z,11.59
2022-11-13T04:17:35.279Z,11.60
2022-11-13T04:20:20.891Z,11.66
2022-11-13T04:23:11.386Z,11.89
2022-11-13T04:25:57.251Z,11.98
2022-11-13T04:28:42.849Z,12.01
2022-11-13T04:31:27.853Z,11.67
2022-11-13T04:34:13.325Z,11.84
2022-11-13T04:36:58.903Z,11.92
2022-11-13T04:39:44.200Z,11.76
2022-11-13T04:42:48.160Z,11.82
2022-11-13T04:45:34.301Z,11.64
2022-11-13T04:48:19.544Z,11.73
2022-11-13T04:51:05.359Z,12.06
2022-11-13T04:53:50.858Z,12.03
2022-11-13T04:56:36.352Z,11.96
2022-11-13T04:59:21.892Z,12.02
2022-11-13T05:02:07.518Z,11.95
2022-11-13T05:04:53.000Z,11.98
2022-11-13T05:07:38.564Z,11.83
2022-11-13T05:10:23.694Z,11.60
2022-11-13T05:13:09.093Z,11.39
2022-11-13T05:16:04.089Z,11.56
2022-11-13T05:18:49.470Z,11.62
2022-11-13T05:21:38.668Z,11.45
2022-11-13T05:24:23.839Z,11.31
2022-11-13T05:27:14.203Z,11.09
2022-11-13T05:30:02.062Z,10.81
2022-11-13T05:32:47.409Z,8.71
2022-11-13T05:35:32.898Z,9.68
2022-11-13T05:38:18.348Z,10.60
2022-11-13T05:41:07.616Z,11.01
2022-11-13T05:43:58.049Z,10.78
2022-11-13T05:46:44.500Z,11.01
2022-11-13T05:49:30.109Z,10.49
2022-11-13T05:52:15.582Z,10.72
2022-11-13T05:55:00.937Z,10.30
2022-11-13T05:57:46.430Z,10.14
2022-11-13T06:00:31.825Z,10.37
2022-11-13T06:03:17.287Z,10.49
2022-11-13T06:06:02.537Z,10.26
2022-11-13T06:08:49.279Z,10.28
2022-11-13T06:11:34.774Z,10.02
2022-11-13T06:14:19.770Z,9.80
2022-11-13T06:17:05.166Z,10.05
2022-11-13T06:19:50.489Z,10.43
2022-11-13T06:22:35.993Z,10.72
2022-11-13T06:25:21.574Z,10.38
2022-11-13T06:28:06.777Z,10.44
2022-11-13T06:30:52.253Z,10.81
2022-11-13T06:33:39.173Z,10.78
2022-11-13T06:36:29.578Z,10.52
2022-11-13T06:39:14.947Z,10.78
2022-11-13T06:42:00.245Z,10.82
2022-11-13T06:44:45.684Z,10.89
2022-11-13T06:47:31.267Z,10.61
2022-11-13T06:50:16.654Z,10.76
2022-11-13T06:53:01.771Z,10.72
2022-11-13T06:55:50.242Z,10.27
2022-11-13T06:58:35.990Z,10.41
2022-11-13T07:01:23.804Z,9.52
2022-11-13T07:04:12.470Z,9.44
2022-11-13T07:06:57.741Z,9.37
2022-11-13T07:09:43.612Z,9.37
2022-11-13T07:12:28.743Z,9.29
2022-11-13T07:15:16.512Z,9.47
2022-11-13T07:18:03.176Z,9.03
2022-11-13T07:20:48.760Z,8.77
2022-11-13T07:23:37.000Z,9.05
2022-11-13T07:26:22.839Z,9.20
2022-11-13T07:29:08.207Z,9.55
2022-11-13T07:31:54.367Z,9.32
2022-11-13T07:34:39.478Z,8.80
2022-11-13T07:37:24.750Z,9.24
2022-11-13T07:40:11.410Z,9.06
2022-11-13T07:42:59.023Z,9.55
2022-11-13T07:45:44.508Z,9.47
2022-11-13T07:48:30.500Z,9.56
2022-11-13T07:51:16.307Z,9.40
2022-11-13T07:54:01.565Z,9.39
2022-11-13T07:56:47.402Z,9.88
2022-11-13T07:59:32.698Z,9.91
2022-11-13T08:02:21.137Z,10.36
2022-11-13T08:05:10.563Z,10.63
2022-11-13T08:07:56.238Z,10.37
2022-11-13T08:10:42.352Z,10.46
2022-11-13T08:13:27.905Z,10.76
2022-11-13T08:16:13.185Z,10.88
2022-11-13T08:18:58.612Z,10.81
2022-11-13T08:21:44.079Z,10.48
2022-11-13T08:24:29.215Z,11.03
2022-11-13T08:27:14.570Z,10.84
2022-11-13T08:29:59.844Z,11.15
2022-11-13T08:32:45.634Z,11.18
2022-11-13T08:35:31.378Z,10.92
2022-11-13T08:38:16.961Z,10.57
2022-11-13T08:41:08.957Z,10.64
2022-11-13T08:43:55.032Z,10.83
2022-11-13T08:46:40.445Z,10.88
2022-11-13T08:49:25.941Z,11.04
2022-11-13T08:52:11.080Z,11.45
2022-11-13T08:54:56.545Z,11.27
2022-11-13T08:57:42.152Z,11.21
2022-11-13T09:00:31.711Z,10.94
2022-11-13T09:03:17.283Z,10.97
2022-11-13T09:06:07.498Z,11.39
2022-11-13T09:08:52.998Z,11.47
2022-11-13T09:11:38.523Z,11.47
2022-11-13T09:14:25.092Z,11.72
2022-11-13T09:17:10.340Z,11.67
2022-11-13T09:19:59.496Z,11.63
2022-11-13T09:22:47.281Z,11.87
2022-11-13T09:25:37.531Z,11.43
2022-11-13T09:28:23.537Z,11.61
2022-11-13T09:31:08.760Z,11.66
2022-11-13T09:33:54.140Z,12.15
2022-11-13T09:36:39.403Z,12.12
2022-11-13T09:39:24.941Z,12.12
2022-11-13T09:42:13.196Z,12.08
2022-11-13T09:45:17.101Z,12.12
2022-11-13T09:48:35.490Z,12.43
2022-11-13T09:51:26.458Z,12.36
2022-11-13T09:54:14.382Z,12.63
2022-11-13T09:57:29.221Z,12.55
2022-11-13T10:00:19.217Z,12.96
2022-11-13T10:03:10.082Z,13.13
2022-11-13T10:06:21.175Z,13.08
2022-11-13T10:09:25.384Z,13.10
2022-11-13T10:12:13.943Z,13.22
2022-11-13T10:15:03.582Z,13.24
2022-11-13T10:17:55.250Z,13.05
2022-11-13T10:20:50.462Z,13.44
2022-11-13T10:23:38.122Z,13.49
2022-11-13T10:26:27.215Z,13.50
2022-11-13T10:29:18.013Z,13.49
2022-11-13T10:32:27.682Z,13.73
2022-11-13T10:35:45.064Z,13.59
2022-11-13T10:38:44.505Z,13.99
2022-11-13T10:41:30.208Z,13.96
2022-11-13T10:44:35.414Z,14.20
2022-11-13T10:47:49.110Z,14.67
2022-11-13T10:50:31.014Z,14.43
2022-11-13T10:53:18.353Z,14.23
2022-11-13T10:56:31.193Z,14.53
2022-11-13T10:59:19.524Z,14.37
2022-11-13T11:02:22.441Z,14.69
2022-11-13T11:05:21.389Z,14.41
2022-11-13T11:08:10.921Z,14.50
2022-11-13T11:11:26.595Z,14.29
2022-11-13T11:14:22.367Z,14.52
2022-11-13T11:17:11.033Z,14.49
2022-11-13T11:20:01.928Z,14.82
2022-11-13T11:22:53.056Z,15.04
2022-11-13T11:25:46.337Z,14.41
2022-11-13T11:28:49.601Z,14.79
2022-11-13T11:31:55.732Z,14.97
2022-11-13T11:34:45.896Z,15.54
2022-11-13T11:37:41.480Z,14.84
2022-11-13T11:40:36.236Z,15.26
2022-11-13T11:43:34.115Z,15.52
2022-11-13T11:46:23.859Z,15.41
2022-11-13T11:49:10.741Z,15.45
2022-11-13T11:52:19.721Z,15.44
2022-11-13T11:55:31.396Z,15.69
2022-11-13T11:58:37.849Z,15.68
2022-11-13T12:01:38.012Z,15.58
2022-11-13T12:04:29.053Z,15.39
2022-11-13T12:07:37.898Z,15.36
2022-11-13T12:10:26.219Z,15.77
2022-11-13T12:13:50.296Z,15.65
2022-11-13T12:17:02.067Z,15.64
2022-11-13T12:20:07.913Z,16.10
2022-11-13T12:23:08.368Z,16.65
2022-11-13T12:26:07.724Z,16.91
2022-11-13T12:29:08.735Z,16.69
2022-11-13T12:32:21.948Z,16.96
2022-11-13T12:35:16.852Z,17.03
2022-11-13T12:38:07.804Z,17.29
2022-11-13T12:41:16.450Z,17.27
2022-11-13T12:44:16.602Z,17.60
2022-11-13T12:47:02.165Z,17.30
2022-11-13T12:49:58.165Z,17.38
2022-11-13T12:52:43.393Z,17.46
2022-11-13T12:55:32.155Z,17.10
2022-11-13T12:58:22.115Z,17.15
2022-11-13T13:01:17.930Z,17.12
2022-11-13T13:04:15.448Z,17.31
2022-11-13T13:07:31.383Z,17.36
2022-11-13T13:10:59.399Z,17.11
2022-11-13T13:13:56.514Z,17.39
2022-11-13T13:16:41.658Z,17.00
2022-11-13T13:19:32.706Z,17.16
2022-11-13T13:22:26.148Z,17.17
2022-11-13T13:25:32.015Z,17.23
2022-11-13T13:28:24.794Z,17.38
2022-11-13T13:31:12.582Z,16.85
2022-11-13T13:34:20.741Z,17.66
2022-11-13T13:37:25.043Z,17.73
2022-11-13T13:40:59.881Z,17.71
2022-11-13T13:44:02.312Z,17.60
2022-11-13T13:46:47.932Z,17.99
2022-11-13T13:49:33.863Z,17.69
2022-11-13T13:52:27.529Z,17.60
2022-11-13T13:55:43.729Z,17.39
2022-11-13T13:58:37.165Z,17.30
2022-11-13T14:01:28.928Z,17.16
2022-11-13T14:04:19.555Z,17.38
2022-11-13T14:07:27.645Z,17.18
2022-11-13T14:10:13.122Z,17.02
2022-11-13T14:12:58.512Z,16.56
2022-11-13T14:15:43.763Z,16.77
2022-11-13T14:18:29.396Z,16.51
2022-11-13T14:21:21.073Z,16.99
2022-11-13T14:24:14.556Z,17.08
2022-11-13T14:27:20.353Z,17.12
2022-11-13T14:30:09.813Z,16.83
2022-11-13T14:32:55.602Z,16.94
2022-11-13T14:35:41.042Z,16.86
2022-11-13T14:38:29.721Z,16.85
2022-11-13T14:41:22.588Z,16.81
2022-11-13T14:44:11.576Z,16.81
2022-11-13T14:47:03.338Z,16.54
2022-11-13T14:49:49.004Z,16.76
2022-11-13T14:52:34.059Z,16.78
2022-11-13T14:55:34.472Z,16.58
2022-11-13T14:58:35.800Z,16.71
2022-11-13T15:01:23.725Z,16.37
2022-11-13T15:04:09.161Z,16.38
2022-11-13T15:06:58.976Z,16.19
2022-11-13T15:09:44.260Z,16.11
2022-11-13T15:12:29.518Z,15.91
2022-11-13T15:15:17.931Z,15.83
2022-11-13T15:18:03.947Z,15.59
2022-11-13T15:20:49.270Z,15.61
2022-11-13T15:23:35.012Z,15.52
2022-11-13T15:26:20.479Z,15.21
2022-11-13T15:29:06.537Z,15.17
2022-11-13T15:31:51.796Z,15.05
2022-11-13T15:34:37.314Z,14.90
2022-11-13T15:37:22.409Z,14.97
2022-11-13T15:40:08.589Z,14.91
2022-11-13T15:42:54.141Z,14.78
2022-11-13T15:45:44.045Z,14.52
2022-11-13T15:48:29.884Z,14.52
2022-11-13T15:51:22.828Z,14.43
2022-11-13T15:54:26.790Z,14.52
2022-11-13T15:57:22.107Z,14.41
2022-11-13T16:00:14.982Z,14.15
2022-11-13T16:03:00.348Z,14.29
2022-11-13T16:05:45.510Z,14.32
2022-11-13T16:08:30.915Z,14.29
2022-11-13T16:11:18.172Z,14.12
2022-11-13T16:14:03.571Z,13.73
2022-11-13T16:16:50.620Z,13.67
2022-11-13T16:19:37.726Z,13.52
2022-11-13T16:22:27.141Z,13.48
2022-11-13T16:25:17.199Z,13.55
2022-11-13T16:28:02.644Z,13.59
2022-11-13T16:30:49.353Z,13.40
2022-11-13T16:33:34.493Z,13.20
2022-11-13T16:36:22.397Z,13.33
2022-11-13T16:39:16.105Z,13.05
2022-11-13T16:42:02.075Z,12.84
2022-11-13T16:44:47.364Z,13.02
2022-11-13T16:47:32.786Z,12.88
2022-11-13T16:50:23.756Z,12.86
2022-11-13T16:53:10.037Z,13.24
2022-11-13T16:55:55.589Z,13.28
2022-11-13T16:58:42.152Z,13.08
2022-11-13T17:01:27.280Z,13.25
2022-11-13T17:04:14.883Z,12.63
2022-11-13T17:07:00.440Z,12.59
2022-11-13T17:09:46.415Z,12.85
2022-11-13T17:12:31.996Z,12.41
2022-11-13T17:15:17.471Z,12.39
2022-11-13T17:18:03.004Z,12.42
2022-11-13T17:20:50.982Z,12.56
2022-11-13T17:23:36.194Z,12.55
2022-11-13T17:26:22.575Z,12.63
2022-11-13T17:29:08.072Z,12.87
2022-11-13T17:31:53.466Z,12.58
2022-11-13T17:34:38.770Z,12.58
2022-11-13T17:37:25.238Z,12.34
2022-11-13T17:40:11.795Z,12.15
2022-11-13T17:42:57.243Z,11.89
2022-11-13T17:45:42.687Z,11.91
2022-11-13T17:48:31.531Z,12.02
2022-11-13T17:51:17.013Z,12.03
2022-11-13T17:54:02.442Z,11.81
2022-11-13T17:56:47.847Z,12.08
2022-11-13T17:59:32.983Z,11.99
2022-11-13T18:02:18.425Z,11.80
2022-11-13T18:05:04.672Z,11.92
2022-11-13T18:07:49.980Z,11.93
2022-11-13T18:10:38.543Z,11.81
2022-11-13T18:13:24.931Z,11.83
2022-11-13T18:16:14.551Z,11.93
2022-11-13T18:19:01.314Z,11.80
2022-11-13T18:21:46.808Z,11.75
2022-11-13T18:24:32.258Z,11.80
2022-11-13T18:27:17.474Z,11.76
2022-11-13T18:30:03.428Z,11.58
2022-11-13T18:32:48.614Z,11.19
2022-11-13T18:35:33.898Z,11.64
2022-11-13T18:38:19.167Z,11.33
2022-11-13T18:41:08.002Z,11.50
2022-11-13T18:43:53.361Z,11.50
2022-11-13T18:46:39.483Z,11.54
2022-11-13T18:49:24.962Z,11.71
2022-11-13T18:52:10.642Z,11.50
2022-11-13T18:54:55.842Z,11.74
2022-11-13T18:57:41.055Z,11.66
2022-11-13T19:00:26.557Z,11.77
2022-11-13T19:03:12.184Z,11.48
2022-11-13T19:05:57.185Z,10.94
2022-11-13T19:08:43.481Z,10.97
2022-11-13T19:11:30.403Z,11.29
2022-11-13T19:14:17.548Z,11.02
2022-11-13T19:17:02.732Z,11.01
2022-11-13T19:19:48.122Z,10.84
2022-11-13T19:22:33.216Z,10.58
2022-11-13T19:25:18.910Z,10.84
2022-11-13T19:28:04.697Z,10.81
2022-11-13T19:30:54.438Z,10.80
2022-11-13T19:33:40.580Z,10.20
2022-11-13T19:36:28.276Z,10.49
2022-11-13T19:39:13.836Z,10.39
2022-11-13T19:41:59.080Z,9.88
2022-11-13T19:44:44.483Z,10.03
2022-11-13T19:47:30.106Z,9.50
2022-11-13T19:50:16.047Z,9.33
2022-11-13T19:53:01.249Z,9.53
2022-11-13T19:55:56.240Z,9.17
2022-11-13T19:58:44.232Z,9.56
2022-11-13T20:01:32.101Z,9.36
2022-11-13T20:04:17.832Z,9.16
2022-11-13T20:07:03.397Z,8.85
2022-11-13T20:09:48.909Z,9.00
2022-11-13T20:12:34.148Z,8.85
2022-11-13T20:15:19.551Z,9.11
2022-11-13T20:18:05.051Z,9.25
2022-11-13T20:20:54.462Z,8.85
2022-11-13T20:23:41.368Z,9.04
2022-11-13T20:26:27.517Z,9.13
2022-11-13T20:29:12.884Z,8.93
2022-11-13T20:31:59.327Z,9.07
2022-11-13T20:34:44.587Z,9.12
2022-11-13T20:37:29.952Z,9.24
2022-11-13T20:40:15.641Z,8.86
2022-11-13T20:43:00.737Z,9.44
2022-11-13T20:45:45.917Z,9.07
2022-11-13T20:48:31.532Z,9.22
2022-11-13T20:51:20.402Z,9.03
2022-11-13T20:54:05.975Z,9.36
2022-11-13T20:56:51.290Z,9.41
2022-11-13T20:59:36.742Z,9.53
2022-11-13T21:02:21.830Z,9.07
2022-11-13T21:05:08.160Z,9.74
2022-11-13T21:07:53.822Z,9.28
2022-11-13T21:10:38.858Z,9.77
2022-11-13T21:13:24.367Z,9.12
2022-11-13T21:16:09.890Z,8.90
2022-11-13T21:18:57.236Z,9.28
2022-11-13T21:21:42.740Z,9.48
2022-11-13T21:24:28.182Z,9.06
2022-11-13T21:27:13.708Z,8.92
2022-11-13T21:29:59.431Z,9.42
2022-11-13T21:32:45.038Z,9.05
2022-11-13T21:35:30.758Z,9.78
2022-11-13T21:38:15.815Z,9.40
2022-11-13T21:41:21.872Z,10.38
2022-11-13T21:44:10.486Z,9.91
2022-11-13T21:46:56.109Z,9.25
2022-11-13T21:49:41.567Z,9.82
2022-11-13T21:52:26.859Z,9.63
2022-11-13T21:55:12.176Z,9.68
2022-11-13T21:57:57.699Z,9.64
2022-11-13T22:00:44.437Z,9.69
2022-11-13T22:03:29.728Z,9.82
2022-11-13T22:06:24.293Z,9.49
2022-11-13T22:09:18.271Z,9.44
2022-11-13T22:12:03.725Z,9.39
2022-11-13T22:14:49.227Z,9.73
2022-11-13T22:17:34.580Z,9.98
2022-11-13T22:20:20.037Z,10.04
2022-11-13T22:23:06.141Z,10.16
2022-11-13T22:25:55.755Z,10.55
2022-11-13T22:28:45.232Z,10.33
2022-11-13T22:31:31.532Z,10.38
2022-11-13T22:34:18.207Z,10.09
2022-11-13T22:37:03.511Z,9.63
2022-11-13T22:39:48.759Z,10.08
2022-11-13T22:42:34.031Z,10.26
2022-11-13T22:45:23.570Z,10.03
2022-11-13T22:48:11.262Z,10.24
2022-11-13T22:50:56.837Z,9.74
2022-11-13T22:53:47.505Z,9.84
2022-11-13T22:56:34.309Z,10.39
2022-11-13T22:59:19.736Z,9.90
2022-11-13T23:02:05.180Z,9.99
2022-11-13T23:04:50.657Z,10.35
2022-11-13T23:07:36.463Z,10.13
2022-11-13T23:10:25.391Z,10.04
2022-11-13T23:13:10.612Z,10.24
2022-11-13T23:15:56.433Z,9.93
2022-11-13T23:18:42.021Z,10.47
2022-11-13T23:21:28.630Z,10.93
2022-11-13T23:24:13.893Z,10.61
2022-11-13T23:26:59.030Z,10.31
2022-11-13T23:29:48.855Z,10.67
2022-11-13T23:32:35.304Z,10.47
2022-11-13T23:35:20.939Z,10.64
2022-11-13T23:38:06.006Z,10.76
2022-11-13T23:40:55.353Z,10.57
2022-11-13T23:44:07.700Z,10.87
2022-11-13T23:46:46.674Z,11.02
2022-11-13T23:49:31.934Z,10.58
2022-11-13T23:52:17.510Z,10.84
2022-11-13T23:55:03.135Z,10.61
2022-11-13T23:57:55.245Z,10.91
